Time;durP1;ratioP1;P1;durP2;ratioP2;P2;SDS_P1;SDS_P2;PMS_P1;PMS_P2;Temp;Humidity;BMP_temperature;BMP_pressure;BME280_temperature;BME280_humidity;BME280_pressure;Samples;Min_cycle;Max_cycle;Signal;HPM_P1;HPM_P2
2022/03/19 00:02:06;;;;;;;26.43;15.70;;;;;;;3.11;48.88;101833.56;5071599;28;20194;-60
2022/03/19 00:04:33;;;;;;;20.23;14.33;;;;;;;3.14;48.85;101824.56;5071776;28;20200;-60
2022/03/19 00:07:00;;;;;;;21.13;15.27;;;;;;;3.00;49.25;101825.06;5071520;28;20766;-60
2022/03/19 00:09:27;;;;;;;19.50;13.37;;;;;;;3.05;49.07;101822.94;5071571;28;20566;-60
2022/03/19 00:11:54;;;;;;;21.70;15.43;;;;;;;2.81;49.15;101792.19;5071370;28;20715;-60
2022/03/19 00:14:21;;;;;;;24.37;15.40;;;;;;;2.99;49.60;101820.78;5074154;28;20237;-60
2022/03/19 00:16:49;;;;;;;22.23;14.23;;;;;;;2.94;49.71;101814.41;5080013;28;20203;-61
2022/03/19 00:19:16;;;;;;;21.37;15.40;;;;;;;2.92;49.54;101819.34;5077729;28;20188;-61
2022/03/19 00:21:43;;;;;;;19.43;14.67;;;;;;;2.94;49.50;101817.81;5080627;28;20226;-60
2022/03/19 00:24:10;;;;;;;19.83;14.70;;;;;;;2.87;49.56;101818.09;5071109;28;20200;-60
2022/03/19 00:26:37;;;;;;;26.20;15.93;;;;;;;2.90;49.38;101820.88;5071431;28;20192;-60
2022/03/19 00:29:04;;;;;;;24.00;15.60;;;;;;;2.95;49.37;101817.06;5068046;28;20201;-60
2022/03/19 00:31:31;;;;;;;20.30;14.70;;;;;;;2.97;49.26;101820.63;5050910;28;20699;-61
2022/03/19 00:33:59;;;;;;;25.73;15.40;;;;;;;2.97;49.26;101818.09;5050962;28;20201;-60
2022/03/19 00:36:26;;;;;;;23.00;14.83;;;;;;;2.91;49.49;101809.94;5050913;28;20196;-60
2022/03/19 00:38:53;;;;;;;27.90;14.87;;;;;;;2.74;49.41;101776.31;5050902;28;20196;-60
2022/03/19 00:41:20;;;;;;;19.33;14.53;;;;;;;2.85;49.82;101819.63;5051100;28;20203;-61
2022/03/19 00:43:47;;;;;;;22.73;14.73;;;;;;;2.78;50.37;101818.94;5050750;28;20666;-61
2022/03/19 00:46:15;;;;;;;22.43;15.00;;;;;;;2.75;50.67;101822.13;5050795;28;20207;-60
2022/03/19 00:48:43;;;;;;;20.17;14.77;;;;;;;2.66;51.00;101812.88;5050920;28;20275;-61
2022/03/19 00:51:11;;;;;;;19.63;13.03;;;;;;;2.56;50.93;101813.72;5050603;28;20248;-60
2022/03/19 00:53:38;;;;;;;20.37;14.23;;;;;;;2.55;51.07;101811.06;5050691;28;20555;-60
2022/03/19 00:56:05;;;;;;;17.73;12.73;;;;;;;2.49;50.66;101808.00;5050877;28;20198;-61
2022/03/19 00:58:32;;;;;;;17.97;13.30;;;;;;;2.51;51.38;101798.88;5050325;28;20224;-60
2022/03/19 01:00:59;;;;;;;18.30;12.80;;;;;;;2.50;50.38;101804.72;5050396;28;20192;-61
2022/03/19 01:03:26;;;;;;;18.70;12.93;;;;;;;2.57;50.88;101810.44;5050567;28;20282;-60
2022/03/19 01:05:53;;;;;;;20.03;13.70;;;;;;;2.52;50.97;101811.69;5050411;28;20192;-61
2022/03/19 01:08:21;;;;;;;16.43;13.10;;;;;;;2.56;50.89;101812.81;5050267;28;20624;-61
2022/03/19 01:10:48;;;;;;;17.90;13.03;;;;;;;2.54;50.68;101810.16;5050620;28;20196;-60
2022/03/19 01:13:15;;;;;;;18.60;12.33;;;;;;;2.58;50.88;101812.22;5050222;28;20212;-60
2022/03/19 01:15:42;;;;;;;20.93;13.73;;;;;;;2.62;50.77;101806.63;5050467;28;20274;-60
2022/03/19 01:18:09;;;;;;;16.37;12.60;;;;;;;2.56;50.75;101803.56;5050425;28;20203;-61
2022/03/19 01:20:36;;;;;;;22.03;12.67;;;;;;;2.60;51.31;101812.34;5050249;28;20283;-60
2022/03/19 01:23:03;;;;;;;15.90;12.20;;;;;;;2.59;51.69;101806.38;5050263;28;20189;-60
2022/03/19 01:25:31;;;;;;;18.60;12.53;;;;;;;2.57;51.88;101814.63;5050200;28;20265;-60
2022/03/19 01:27:58;;;;;;;17.10;12.37;;;;;;;2.56;51.81;101807.75;5050167;28;20192;-61
2022/03/19 01:30:26;;;;;;;16.50;12.17;;;;;;;2.59;51.70;101811.44;5050336;28;20662;-60
2022/03/19 01:32:53;;;;;;;19.00;13.65;;;;;;;2.56;51.86;101790.88;5049774;28;20447;-60
2022/03/19 01:35:21;;;;;;;18.00;12.60;;;;;;;2.67;51.34;101807.00;5050066;28;20193;-61
2022/03/19 01:37:49;;;;;;;17.23;12.87;;;;;;;2.63;51.46;101798.28;5053223;28;20295;-61
2022/03/19 01:40:18;;;;;;;20.73;12.60;;;;;;;2.59;51.79;101795.31;5054187;28;20195;-60
2022/03/19 01:42:48;;;;;;;17.33;12.80;;;;;;;2.57;52.31;101789.25;5054296;28;20266;-61
2022/03/19 01:45:17;;;;;;;15.57;12.47;;;;;;;2.53;51.75;101793.16;5054046;28;20196;-60
2022/03/19 01:47:44;;;;;;;18.57;11.80;;;;;;;2.39;51.43;101763.19;5054001;28;20258;-60
2022/03/19 01:50:13;;;;;;;15.90;11.50;;;;;;;2.51;51.33;101782.00;5053998;28;20191;-61
2022/03/19 01:52:40;;;;;;;16.10;11.73;;;;;;;2.48;51.94;101785.91;5056778;28;20223;-60
2022/03/19 01:55:08;;;;;;;18.40;13.20;;;;;;;2.43;53.20;101792.25;5054455;28;20188;-61
2022/03/19 01:57:38;;;;;;;20.20;14.07;;;;;;;2.41;54.00;101792.13;5054276;28;20206;-60
2022/03/19 02:00:09;;;;;;;20.95;14.18;;;;;;;2.39;54.33;101796.16;5053577;28;20504;-59
2022/03/19 02:02:37;;;;;;;18.10;12.77;;;;;;;2.39;54.29;101793.63;5054107;28;20219;-60
2022/03/19 02:05:05;;;;;;;17.57;13.43;;;;;;;2.32;55.04;101773.59;5053682;28;20192;-60
2022/03/19 02:07:32;;;;;;;17.43;13.47;;;;;;;2.31;55.16;101787.91;5053346;28;20202;-59
2022/03/19 02:09:59;;;;;;;18.67;12.77;;;;;;;2.40;55.38;101787.81;5053204;28;20196;-59
2022/03/19 02:12:27;;;;;;;15.27;12.23;;;;;;;2.35;53.99;101796.69;5053742;28;20588;-59
2022/03/19 02:14:54;;;;;;;18.90;12.40;;;;;;;2.28;54.19;101794.41;5053858;28;20193;-60
2022/03/19 02:17:24;;;;;;;16.40;11.87;;;;;;;2.21;54.64;101797.16;5053655;28;20286;-59
2022/03/19 02:19:52;;;;;;;18.67;13.57;;;;;;;2.12;54.15;101797.25;5067042;28;20191;-59
2022/03/19 02:22:21;;;;;;;18.20;13.70;;;;;;;2.05;54.78;101809.25;5073541;28;20192;-59
2022/03/19 02:27:35;;;;;;;28.80;20.27;;;;;;;1.57;56.29;101765.31;5073732;28;20593;-60
2022/03/19 02:30:03;;;;;;;35.27;20.90;;;;;;;1.65;57.11;101800.72;5073220;28;20274;-60
2022/03/19 02:32:30;;;;;;;33.27;20.53;;;;;;;1.67;57.63;101801.75;5073477;28;20223;-59
2022/03/19 02:34:57;;;;;;;31.20;19.37;;;;;;;1.60;57.72;101801.94;5073450;28;20198;-60
2022/03/19 02:37:24;;;;;;;30.47;19.77;;;;;;;1.61;58.35;101803.75;5073105;28;20219;-61
2022/03/19 02:39:52;;;;;;;28.90;19.00;;;;;;;1.61;58.47;101800.31;5073341;28;20195;-61
2022/03/19 02:42:21;;;;;;;29.63;19.97;;;;;;;1.58;58.72;101793.34;5073373;28;20203;-60
2022/03/19 02:44:49;;;;;;;31.70;20.53;;;;;;;1.53;58.05;101799.66;5072907;28;20203;-60
2022/03/19 02:47:15;;;;;;;25.67;18.63;;;;;;;1.57;58.71;101808.38;5073123;28;20253;-60
2022/03/19 02:49:42;;;;;;;30.67;20.03;;;;;;;1.55;59.00;101802.31;5072176;28;20195;-61
2022/03/19 02:52:09;;;;;;;27.73;19.97;;;;;;;1.54;58.81;101801.41;5072950;28;20224;-61
2022/03/19 02:54:36;;;;;;;33.47;19.70;;;;;;;1.60;58.98;101790.91;5072972;28;20202;-61
2022/03/19 02:57:05;;;;;;;28.87;19.40;;;;;;;1.61;59.05;101796.16;5072770;28;20666;-61
2022/03/19 02:59:33;;;;;;;32.03;19.70;;;;;;;1.57;58.81;101796.63;5072834;28;20235;-60
2022/03/19 03:02:01;;;;;;;26.70;19.37;;;;;;;1.53;58.83;101794.56;5072916;28;20278;-60
2022/03/19 03:04:29;;;;;;;33.30;21.03;;;;;;;1.48;59.47;101790.75;5072758;28;20274;-60
2022/03/19 03:06:58;;;;;;;30.27;20.83;;;;;;;1.52;59.25;101799.50;5072669;28;20188;-59
2022/03/19 03:09:27;;;;;;;34.17;21.67;;;;;;;1.61;58.81;101802.84;5072515;28;20195;-60
2022/03/19 03:11:54;;;;;;;32.13;21.00;;;;;;;1.67;58.42;101803.41;5072756;28;20219;-60
2022/03/19 03:14:23;;;;;;;30.63;20.93;;;;;;;1.69;58.84;101800.25;5072690;28;20196;-60
2022/03/19 03:16:52;;;;;;;26.63;19.57;;;;;;;1.71;58.05;101805.44;5072550;28;20730;-60
2022/03/19 03:19:19;;;;;;;24.77;17.07;;;;;;;1.68;57.76;101798.44;5072470;28;20196;-60
2022/03/19 03:21:47;;;;;;;24.37;17.13;;;;;;;1.70;57.80;101804.53;5072277;28;20188;-60
2022/03/19 03:24:15;;;;;;;30.33;18.00;;;;;;;1.66;57.68;101806.66;5072463;28;20746;-60
2022/03/19 03:26:44;;;;;;;29.00;22.27;;;;;;;1.82;57.98;101803.81;5071355;28;20445;-61
2022/03/19 03:29:14;;;;;;;28.60;20.00;;;;;;;1.90;57.33;101798.69;5072402;28;20191;-61
2022/03/19 03:31:43;;;;;;;27.60;19.03;;;;;;;1.87;57.73;101798.41;5071931;28;20227;-61
2022/03/19 03:34:09;;;;;;;25.07;17.93;;;;;;;1.90;57.02;101795.25;5072669;28;20195;-61
2022/03/19 03:36:36;;;;;;;25.30;17.47;;;;;;;1.91;56.93;101802.09;5072306;28;20198;-61
2022/03/19 03:39:03;;;;;;;24.03;15.23;;;;;;;1.91;56.22;101799.56;5072166;28;20234;-60
2022/03/19 03:41:30;;;;;;;20.40;15.73;;;;;;;1.83;56.10;101798.91;5072337;28;20274;-60
2022/03/19 03:43:57;;;;;;;19.40;14.53;;;;;;;1.79;56.69;101800.28;5071932;28;20693;-61
2022/03/19 03:46:24;;;;;;;22.57;15.33;;;;;;;1.85;56.09;101797.38;5072035;28;20199;-60
2022/03/19 03:48:53;;;;;;;19.77;14.33;;;;;;;1.72;55.64;101785.31;5072226;28;20198;-60
2022/03/19 03:51:20;;;;;;;20.90;15.03;;;;;;;1.81;55.82;101797.00;5072077;28;20206;-60
2022/03/19 03:53:47;;;;;;;27.40;16.13;;;;;;;1.73;56.38;101797.19;5072001;28;20263;-60
2022/03/19 03:56:14;;;;;;;24.13;15.77;;;;;;;1.73;56.36;101799.72;5071424;28;21003;-60
2022/03/19 03:58:41;;;;;;;21.17;15.40;;;;;;;1.77;55.60;101798.38;5071656;28;20220;-61
2022/03/19 04:01:08;;;;;;;21.43;16.00;;;;;;;1.74;55.82;101800.63;5071565;28;20603;-60
2022/03/19 04:03:36;;;;;;;25.03;16.47;;;;;;;1.71;56.16;101806.31;5071609;28;20282;-61
2022/03/19 04:06:04;;;;;;;26.10;17.93;;;;;;;1.74;56.15;101809.13;5071442;28;20203;-60
2022/03/19 04:08:31;;;;;;;23.07;16.33;;;;;;;1.65;56.28;101799.81;5071438;28;20735;-61
2022/03/19 04:10:58;;;;;;;23.27;16.57;;;;;;;1.73;55.97;101796.34;5071446;28;20195;-60
2022/03/19 04:13:25;;;;;;;21.83;16.70;;;;;;;1.74;55.80;101803.16;5071338;28;20306;-61
2022/03/19 04:15:52;;;;;;;24.97;17.40;;;;;;;1.82;56.04;101802.19;5071488;28;20719;-60
2022/03/19 04:18:19;;;;;;;27.17;17.47;;;;;;;1.74;55.98;101796.47;5071209;28;20286;-60
2022/03/19 04:20:46;;;;;;;25.50;17.40;;;;;;;1.79;55.86;101799.38;5071512;28;20206;-60
2022/03/19 04:23:14;;;;;;;28.10;19.43;;;;;;;1.80;56.05;101803.72;5071369;28;20661;-59
2022/03/19 04:25:42;;;;;;;25.03;18.33;;;;;;;1.88;56.09;101805.25;5071140;28;20274;-60
2022/03/19 04:28:11;;;;;;;23.87;16.83;;;;;;;1.93;55.25;101810.72;5071107;28;20199;-59
2022/03/19 04:30:40;;;;;;;25.97;17.87;;;;;;;1.97;55.11;101802.66;5071087;28;20191;-58
2022/03/19 04:33:07;;;;;;;25.37;16.97;;;;;;;1.97;54.51;101798.47;5071002;28;20215;-58
2022/03/19 04:38:23;;;;;;;24.87;16.20;;;;;;;2.04;53.86;101800.75;5070849;28;20577;-57
2022/03/19 04:40:52;;;;;;;23.77;16.70;;;;;;;2.11;54.04;101805.63;5070958;28;20566;-57
2022/03/19 04:43:19;;;;;;;26.60;18.45;;;;;;;2.21;53.66;101803.13;5070522;28;20442;-58
2022/03/19 04:45:46;;;;;;;23.77;16.90;;;;;;;2.25;52.34;101806.81;5070719;28;20640;-57
2022/03/19 04:48:13;;;;;;;23.20;15.67;;;;;;;2.25;51.90;101804.28;5070573;28;20665;-57
2022/03/19 04:50:41;;;;;;;24.10;15.50;;;;;;;2.25;51.47;101804.28;5070651;28;20199;-57
2022/03/19 04:53:09;;;;;;;20.90;16.43;;;;;;;2.29;51.57;101809.72;5070707;28;20215;-57
2022/03/19 04:55:38;;;;;;;25.40;16.80;;;;;;;2.33;52.27;101811.75;5070805;28;20191;-57
2022/03/19 04:58:07;;;;;;;25.43;16.40;;;;;;;2.33;51.85;101811.75;5070783;28;20203;-57
2022/03/19 05:00:34;;;;;;;20.93;15.70;;;;;;;2.37;52.04;101816.34;5070548;28;20716;-57
2022/03/19 05:03:01;;;;;;;21.90;15.70;;;;;;;2.32;52.33;101807.47;5070398;28;20199;-58
2022/03/19 05:05:29;;;;;;;23.73;14.33;;;;;;;2.31;51.99;101812.38;5070568;28;20199;-57
2022/03/19 05:07:56;;;;;;;23.33;14.53;;;;;;;2.25;51.62;101810.22;5070823;28;20281;-57
2022/03/19 05:13:09;;;;;;;33.43;21.73;;;;;;;2.27;51.81;101811.25;5069918;28;20448;-57
2022/03/19 05:15:36;;;;;;;39.97;20.37;;;;;;;2.30;51.86;101814.06;5070503;28;20192;-57
2022/03/19 05:18:04;;;;;;;29.73;18.53;;;;;;;2.34;52.00;101816.09;5070216;28;20290;-57
2022/03/19 05:20:31;;;;;;;24.47;16.70;;;;;;;2.38;51.61;101814.72;5070150;28;20202;-57
2022/03/19 05:22:59;;;;;;;32.72;22.45;;;;;;;2.47;51.91;101817.16;5069582;28;20575;-57
2022/03/19 05:25:26;;;;;;;26.00;16.70;;;;;;;2.53;51.36;101813.47;5070504;28;20188;-57
2022/03/19 05:27:53;;;;;;;20.67;16.10;;;;;;;2.52;51.35;101810.81;5070360;28;20199;-58
2022/03/19 05:30:21;;;;;;;18.63;14.43;;;;;;;2.56;50.86;101811.19;5070292;28;20278;-60
2022/03/19 05:32:49;;;;;;;22.53;14.40;;;;;;;2.53;50.72;101823.59;5070194;28;20313;-60
2022/03/19 05:35:18;;;;;;;22.70;15.00;;;;;;;2.51;50.47;101820.06;5070479;28;20199;-60
2022/03/19 05:37:46;;;;;;;19.33;14.50;;;;;;;2.52;50.86;101818.41;5070051;28;20198;-60
2022/03/19 05:40:14;;;;;;;20.73;15.13;;;;;;;2.57;50.76;101818.06;5070046;28;20193;-60
2022/03/19 05:42:41;;;;;;;22.93;15.77;;;;;;;2.58;50.97;101814.75;5070002;28;20195;-60
2022/03/19 05:45:09;;;;;;;20.23;15.40;;;;;;;2.65;50.51;101819.59;5070341;28;20214;-60
2022/03/19 05:47:38;;;;;;;24.07;16.80;;;;;;;2.72;50.70;101819.31;5070214;28;20678;-61
2022/03/19 05:50:06;;;;;;;21.57;15.70;;;;;;;2.85;50.79;101814.53;5069855;28;20188;-60
2022/03/19 05:52:33;;;;;;;25.57;18.57;;;;;;;2.93;50.17;101818.59;5069759;28;20533;-60
2022/03/19 05:55:00;;;;;;;26.43;17.50;;;;;;;3.04;49.92;101824.56;5070058;28;20206;-60
2022/03/19 05:57:27;;;;;;;25.30;17.00;;;;;;;3.03;50.14;101809.19;5070147;28;20191;-60
2022/03/19 05:59:54;;;;;;;27.53;17.30;;;;;;;3.05;49.84;101818.72;5069915;28;20219;-60
2022/03/19 06:02:21;;;;;;;29.77;22.60;;;;;;;3.09;50.01;101819.88;5069636;28;20528;-60
2022/03/19 06:04:49;;;;;;;30.83;21.70;;;;;;;3.14;49.96;101814.41;5069802;28;20283;-61
2022/03/19 06:07:16;;;;;;;30.10;19.77;;;;;;;3.22;49.85;101807.41;5069903;28;20294;-61
2022/03/19 06:09:43;;;;;;;23.23;16.40;;;;;;;3.23;49.70;101807.56;5069864;28;20278;-60
2022/03/19 06:12:10;;;;;;;19.20;15.70;;;;;;;3.31;49.69;101813.25;5069825;28;20200;-60
2022/03/19 06:14:37;;;;;;;24.57;15.40;;;;;;;3.28;49.64;101813.00;5069822;28;20728;-61
2022/03/19 06:17:05;;;;;;;21.27;16.13;;;;;;;3.30;49.97;101806.38;5069444;28;20195;-61
2022/03/19 06:19:31;;;;;;;21.10;16.93;;;;;;;3.28;50.00;101808.81;5069622;28;20200;-60
2022/03/19 06:22:00;;;;;;;23.60;16.73;;;;;;;3.28;49.87;101806.28;5069855;28;20195;-60
2022/03/19 06:24:27;;;;;;;21.43;15.87;;;;;;;3.36;49.42;101820.47;5073473;28;20241;-60
2022/03/19 06:26:54;;;;;;;21.63;15.20;;;;;;;3.38;49.52;101821.50;5073617;28;20191;-60
2022/03/19 06:29:22;;;;;;;21.30;15.57;;;;;;;3.48;49.12;101824.03;5072828;28;20190;-61
2022/03/19 06:31:49;;;;;;;24.00;15.63;;;;;;;3.56;49.34;101819.56;5073299;28;20246;-61
2022/03/19 06:34:16;;;;;;;23.23;16.90;;;;;;;3.65;48.85;101822.88;5073103;28;20220;-61
2022/03/19 06:39:29;;;;;;;24.37;17.23;;;;;;;3.75;49.04;101822.81;5073148;28;20276;-61
2022/03/19 06:41:56;;;;;;;23.55;18.73;;;;;;;3.75;48.21;101825.38;5072107;28;20540;-61
2022/03/19 06:44:23;;;;;;;26.27;17.67;;;;;;;3.81;48.62;101819.88;5072716;28;20273;-61
2022/03/19 06:46:49;;;;;;;21.90;16.03;;;;;;;3.73;47.56;101786.22;5071631;28;20204;-61
2022/03/19 06:49:16;;;;;;;27.53;16.57;;;;;;;3.95;47.95;101820.22;5072879;28;20274;-61
2022/03/19 06:51:43;;;;;;;24.80;16.93;;;;;;;4.04;47.54;101815.84;5072337;28;20195;-60
2022/03/19 06:54:10;;;;;;;21.57;16.23;;;;;;;4.13;47.59;101819.13;5072458;28;20309;-61
2022/03/19 06:56:39;;;;;;;24.20;15.53;;;;;;;4.21;46.81;101816.28;5072841;28;20294;-62
2022/03/19 06:59:06;;;;;;;23.13;16.67;;;;;;;4.31;47.29;101816.25;5072652;28;20313;-60
2022/03/19 07:01:36;;;;;;;21.33;15.87;;;;;;;4.48;46.42;101813.34;5072466;28;20199;-60
2022/03/19 07:04:03;;;;;;;21.60;15.13;;;;;;;4.49;46.36;101803.28;5072748;28;20234;-62
2022/03/19 07:06:30;;;;;;;26.40;17.27;;;;;;;4.53;46.19;101814.59;5072393;28;20542;-60
2022/03/19 07:08:58;;;;;;;26.37;17.40;;;;;;;4.71;46.40;101814.34;5072536;28;20200;-61
2022/03/19 07:11:25;;;;;;;23.60;17.77;;;;;;;4.81;45.79;101815.06;5072653;28;20199;-61
2022/03/19 07:13:53;;;;;;;21.93;17.00;;;;;;;4.97;44.19;101821.41;5072453;28;20254;-61
2022/03/19 07:16:20;;;;;;;23.87;17.37;;;;;;;5.07;43.94;101815.34;5072297;28;20200;-61
2022/03/19 07:18:47;;;;;;;22.30;16.77;;;;;;;5.20;44.15;101812.94;5072257;28;20208;-61
2022/03/19 07:21:15;;;;;;;20.27;16.30;;;;;;;5.28;43.48;101820.38;5072538;28;20192;-62
2022/03/19 07:23:42;;;;;;;22.53;15.83;;;;;;;5.43;43.68;101815.53;5070913;28;20199;-61
2022/03/19 07:26:09;;;;;;;20.73;15.73;;;;;;;5.50;43.50;101812.66;5079185;28;20196;-62
2022/03/19 07:28:36;;;;;;;22.63;15.23;;;;;;;5.60;42.32;101811.69;5082510;28;20192;-62
2022/03/19 07:31:05;;;;;;;17.80;14.60;;;;;;;5.75;42.50;101803.47;5078415;28;20188;-62
2022/03/19 07:33:34;;;;;;;20.73;15.70;;;;;;;5.88;41.40;101805.25;5080951;28;20593;-62
2022/03/19 07:36:02;;;;;;;21.57;14.83;;;;;;;5.90;40.67;101808.81;5073053;28;20278;-61
2022/03/19 07:38:30;;;;;;;21.93;15.23;;;;;;;5.89;40.86;101804.47;5077386;28;20192;-61
2022/03/19 07:43:42;;;;;;;21.67;14.83;;;;;;;6.02;39.53;101809.69;5064442;28;20196;-61
2022/03/19 07:46:11;;;;;;;21.20;16.07;;;;;;;6.13;40.42;101813.00;5071833;28;20217;-61
2022/03/19 07:48:38;;;;;;;23.47;15.83;;;;;;;6.04;41.87;101808.16;5071885;28;20970;-60
2022/03/19 07:51:05;;;;;;;16.50;13.67;;;;;;;6.24;39.01;101805.31;5080505;28;20643;-61
2022/03/19 07:53:32;;;;;;;22.87;16.00;;;;;;;6.31;38.67;101809.19;5081852;28;20200;-60
2022/03/19 07:55:59;;;;;;;15.87;13.80;;;;;;;6.38;35.73;101808.81;5080247;28;20469;-61
2022/03/19 07:58:26;;;;;;;18.87;15.00;;;;;;;6.48;37.07;101809.56;5079326;28;20201;-59
2022/03/19 08:00:53;;;;;;;23.23;15.83;;;;;;;6.56;37.75;101805.00;5077673;28;20271;-60
2022/03/19 08:03:21;;;;;;;23.33;16.57;;;;;;;6.45;37.30;101806.84;5070170;28;20194;-61
2022/03/19 08:05:48;;;;;;;16.50;13.30;;;;;;;6.40;36.70;101807.28;5071800;28;20287;-60
2022/03/19 08:08:15;;;;;;;16.67;13.53;;;;;;;6.59;36.32;101809.44;5069965;28;20202;-62
2022/03/19 08:10:42;;;;;;;14.60;11.87;;;;;;;6.53;35.60;101803.13;5071209;28;20200;-61
2022/03/19 08:13:11;;;;;;;21.33;15.97;;;;;;;6.31;36.77;101809.19;5071345;28;20200;-60
2022/03/19 08:15:40;;;;;;;19.40;12.73;;;;;;;6.53;36.70;101802.25;5070928;28;20197;-61
2022/03/19 08:18:09;;;;;;;20.53;14.47;;;;;;;6.78;35.71;101802.25;5071170;28;20253;-61
2022/03/19 08:20:37;;;;;;;23.60;14.98;;;;;;;7.03;35.41;101801.44;5070558;28;20457;-61
2022/03/19 08:23:04;;;;;;;19.57;14.50;;;;;;;7.11;34.49;101795.16;5070817;28;20205;-61
2022/03/19 08:25:31;;;;;;;20.23;13.63;;;;;;;7.10;34.95;101801.09;5071011;28;20310;-61
2022/03/19 08:27:59;;;;;;;20.10;14.60;;;;;;;7.34;35.15;101800.91;5070762;28;20220;-61
2022/03/19 08:30:26;;;;;;;24.92;15.27;;;;;;;7.62;35.30;101786.59;5070467;28;20438;-61
2022/03/19 08:32:53;;;;;;;21.83;14.07;;;;;;;7.97;34.73;101792.28;5070867;28;20253;-60
2022/03/19 08:35:20;;;;;;;12.83;10.73;;;;;;;7.30;33.67;101796.41;5070623;28;20674;-60
2022/03/19 08:37:48;;;;;;;13.33;9.40;;;;;;;7.58;32.69;101782.09;5070193;28;20279;-60
2022/03/19 08:40:18;;;;;;;13.93;10.20;;;;;;;7.67;32.63;101786.09;5070892;28;20209;-61
2022/03/19 08:42:51;;;;;;;17.37;12.27;;;;;;;7.75;33.49;101783.16;5070699;28;20194;-60
2022/03/19 08:45:19;;;;;;;17.47;13.60;;;;;;;7.81;33.95;101784.41;5070368;28;20192;-61
2022/03/19 08:47:47;;;;;;;19.77;13.23;;;;;;;7.64;33.01;101774.78;5070131;28;20201;-57
2022/03/19 08:50:13;;;;;;;13.90;11.47;;;;;;;7.30;34.28;101787.06;5069448;28;20197;-58
2022/03/19 08:52:40;;;;;;;20.73;12.07;;;;;;;6.90;34.13;101703.41;5070289;28;20199;-58
2022/03/19 08:55:10;;;;;;;15.80;11.50;;;;;;;7.51;33.81;101782.44;5070452;28;20223;-59
2022/03/19 08:57:37;;;;;;;26.10;16.57;;;;;;;7.50;33.90;101781.56;5070206;28;20204;-59
2022/03/19 09:00:05;;;;;;;20.17;14.27;;;;;;;7.52;34.92;101780.00;5069443;28;20229;-59
2022/03/19 09:02:32;;;;;;;19.30;14.00;;;;;;;6.78;35.48;101784.38;5069582;28;20188;-59
2022/03/19 09:04:59;;;;;;;20.27;13.63;;;;;;;6.72;36.34;101783.94;5069665;28;20678;-57
2022/03/19 09:07:26;;;;;;;17.90;13.50;;;;;;;6.69;36.65;101774.41;5069715;28;20206;-59
2022/03/19 09:09:53;;;;;;;19.47;13.10;;;;;;;6.67;36.34;101792.97;5068494;28;20198;-57
2022/03/19 09:12:27;;;;;;;18.73;11.90;;;;;;;6.60;35.76;101772.88;5065976;28;20274;-58
2022/03/19 09:14:55;;;;;;;15.83;12.07;;;;;;;6.78;36.10;101779.25;5065814;28;20212;-58
2022/03/19 09:17:22;;;;;;;18.70;12.63;;;;;;;6.98;35.79;101784.03;5066392;28;20193;-59
2022/03/19 09:19:49;;;;;;;21.50;13.43;;;;;;;7.04;35.43;101782.78;5066334;28;20188;-58
2022/03/19 09:22:16;;;;;;;30.57;18.23;;;;;;;6.88;35.50;101789.31;5066276;28;20193;-59
2022/03/19 09:24:43;;;;;;;19.80;13.40;;;;;;;6.84;36.09;101780.53;5066781;28;20199;-61
2022/03/19 09:27:10;;;;;;;19.37;13.37;;;;;;;6.70;35.49;101777.88;5069126;28;20190;-62
2022/03/19 09:29:38;;;;;;;14.60;11.63;;;;;;;6.95;34.80;101786.41;5069804;28;20292;-61
2022/03/19 09:32:06;;;;;;;15.73;12.17;;;;;;;6.77;35.33;101780.03;5069442;28;20199;-61
2022/03/19 09:34:33;;;;;;;15.30;12.00;;;;;;;6.68;35.59;101787.06;5069763;28;20240;-61
2022/03/19 09:37:00;;;;;;;17.88;13.10;;;;;;;6.55;35.96;101782.81;5069441;28;20437;-61
2022/03/19 09:39:27;;;;;;;18.60;13.47;;;;;;;6.89;35.84;101783.44;5069695;28;20193;-62
2022/03/19 09:41:54;;;;;;;17.33;13.20;;;;;;;6.52;36.76;101780.91;5069452;28;20200;-61
2022/03/19 09:44:25;;;;;;;26.00;14.20;;;;;;;6.48;37.05;101781.47;5069649;28;20193;-61
2022/03/19 09:46:53;;;;;;;17.33;13.98;;;;;;;6.58;36.82;101779.56;5068932;28;20438;-61
2022/03/19 09:49:20;;;;;;;16.67;13.53;;;;;;;6.85;35.86;101777.22;5069658;28;20203;-61
2022/03/19 09:51:54;;;;;;;19.33;14.30;;;;;;;6.71;36.23;101783.06;5069647;28;20218;-61
2022/03/19 09:54:21;;;;;;;17.53;13.00;;;;;;;6.25;37.76;101788.34;5069383;28;20215;-61
2022/03/19 09:56:48;;;;;;;14.67;12.80;;;;;;;6.21;37.33;101786.34;5069182;28;20192;-61
2022/03/19 09:59:15;;;;;;;15.77;13.03;;;;;;;6.40;37.72;101780.06;5072906;28;20239;-61
2022/03/19 10:01:42;;;;;;;14.93;11.87;;;;;;;6.77;36.56;101777.47;5073356;28;20272;-61
2022/03/19 10:04:12;;;;;;;15.03;12.37;;;;;;;7.11;36.27;101776.41;5073292;28;20593;-61
2022/03/19 10:09:33;;;;;;;16.43;13.17;;;;;;;7.63;35.44;101767.91;5073097;28;20682;-61
2022/03/19 10:12:01;;;;;;;15.03;12.87;;;;;;;7.86;35.19;101764.22;5073189;28;20252;-61
2022/03/19 10:14:28;;;;;;;18.17;13.17;;;;;;;8.06;34.28;101761.25;5072906;28;20764;-61
2022/03/19 10:16:57;;;;;;;23.37;12.17;;;;;;;8.25;34.02;101759.94;5073166;28;20192;-61
2022/03/19 10:19:25;;;;;;;14.80;12.33;;;;;;;8.47;33.99;101766.38;5072570;28;20251;-61
2022/03/19 10:21:54;;;;;;;15.10;12.33;;;;;;;8.17;34.02;101762.81;5067363;28;20276;-63
2022/03/19 10:24:23;;;;;;;14.63;11.97;;;;;;;8.29;34.07;101759.34;5078194;28;20237;-61
2022/03/19 10:26:50;;;;;;;14.57;12.20;;;;;;;8.69;33.99;101752.41;5080137;28;20590;-61
2022/03/19 10:29:26;;;;;;;14.67;11.87;;;;;;;8.70;33.05;101759.31;5072853;28;20681;-61
2022/03/19 10:32:00;;;;;;;19.93;14.73;;;;;;;8.03;33.49;101753.38;5073254;28;20196;-61
2022/03/19 10:34:30;;;;;;;15.47;12.90;;;;;;;8.35;33.87;101747.72;5072619;28;20221;-61
2022/03/19 10:36:58;;;;;;;16.97;12.57;;;;;;;8.38;33.69;101742.78;5072770;28;20640;-61
2022/03/19 10:39:26;;;;;;;15.70;10.97;;;;;;;8.14;33.22;101747.25;5073309;28;20297;-63
2022/03/19 10:41:54;;;;;;;12.87;10.57;;;;;;;8.37;32.30;101744.47;5082148;28;20194;-61
2022/03/19 10:44:24;;;;;;;13.33;10.83;;;;;;;8.07;32.39;101742.56;5081728;28;20202;-60
2022/03/19 10:46:53;;;;;;;15.60;10.50;;;;;;;8.46;32.60;101737.31;5082575;28;20213;-60
2022/03/19 10:49:22;;;;;;;12.80;10.53;;;;;;;7.74;32.87;101736.22;5083435;28;20214;-60
2022/03/19 10:51:52;;;;;;;12.43;10.60;;;;;;;7.00;34.35;101714.34;5082126;28;20269;-61
2022/03/19 10:54:20;;;;;;;14.17;11.63;;;;;;;6.97;35.63;101728.59;5085241;28;20246;-60
2022/03/19 10:56:48;;;;;;;13.93;10.93;;;;;;;6.74;35.75;101710.84;5073831;28;20277;-61
2022/03/19 10:59:15;;;;;;;13.77;10.47;;;;;;;7.19;34.88;101692.53;5072082;28;20261;-60
2022/03/19 11:01:43;;;;;;;15.40;12.88;;;;;;;7.28;34.67;101714.47;5072053;28;20426;-61
2022/03/19 11:04:12;;;;;;;17.03;12.43;;;;;;;6.80;35.76;101719.81;5072285;28;20636;-60
2022/03/19 11:06:40;;;;;;;16.60;12.93;;;;;;;6.77;35.77;101719.59;5072344;28;20200;-60
2022/03/19 11:09:10;;;;;;;15.13;12.50;;;;;;;6.89;35.23;101710.22;5071123;28;20191;-60
2022/03/19 11:11:47;;;;;;;13.47;11.40;;;;;;;7.05;35.17;101710.44;5070673;28;20202;-61
2022/03/19 11:14:19;;;;;;;15.47;11.47;;;;;;;6.90;35.32;101708.53;5080963;28;20185;-61
2022/03/19 11:17:23;;;;;;;13.60;11.10;;;;;;;6.63;35.63;101678.59;5083088;28;20270;-60
2022/03/19 11:19:39;;;;;;;17.97;11.30;;;;;;;6.80;34.70;101707.03;5076341;28;20198;-60
2022/03/19 11:22:07;;;;;;;17.10;11.60;;;;;;;6.31;35.30;101699.41;5076267;28;20598;-61
2022/03/19 11:24:52;;;;;;;15.30;10.97;;;;;;;6.71;36.10;101702.97;5081745;28;20250;-61
2022/03/19 11:27:20;;;;;;;19.87;10.33;;;;;;;6.79;35.48;101694.16;5075727;28;20196;-61
2022/03/19 11:29:47;;;;;;;14.50;10.87;;;;;;;7.13;35.22;101686.25;5069427;28;20201;-61
2022/03/19 11:32:23;;;;;;;14.23;11.27;;;;;;;7.25;34.42;101683.56;5051416;28;20202;-61
2022/03/19 11:34:56;;;;;;;14.90;10.43;;;;;;;7.71;33.65;101672.94;5051742;28;20217;-58
2022/03/19 11:37:24;;;;;;;11.53;9.50;;;;;;;7.41;33.33;101668.44;5067250;28;20222;-58